Time;durP1;ratioP1;P1;durP2;ratioP2;P2;SDS_P1;SDS_P2;PMS_P1;PMS_P2;Temp;Humidity;BMP_temperature;BMP_pressure;BME280_temperature;BME280_humidity;BME280_pressure;Samples;Min_cycle;Max_cycle;Signal;HPM_P1;HPM_P2
2022/12/02 00:01:54;;;;;;;25.17;16.03;;;;;;;5.73;81.29;95813.53;4936146;29;20268;-81
2022/12/02 00:04:22;;;;;;;27.30;17.53;;;;;;;5.75;81.23;95811.66;4935382;29;20204;-83
2022/12/02 00:06:50;;;;;;;22.10;15.87;;;;;;;5.74;81.55;95814.34;4935459;29;20222;-82
2022/12/02 00:09:25;;;;;;;24.57;17.37;;;;;;;5.74;81.75;95814.34;4935622;29;20197;-81
2022/12/02 00:11:53;;;;;;;23.97;17.53;;;;;;;5.65;82.39;95813.44;4934500;29;20213;-82
2022/12/02 00:14:22;;;;;;;24.50;17.30;;;;;;;5.63;82.34;95802.56;4935050;29;20206;-82
2022/12/02 00:16:49;;;;;;;24.67;17.77;;;;;;;5.63;82.53;95805.09;4935020;29;20229;-80
2022/12/02 00:19:16;;;;;;;24.97;17.23;;;;;;;5.66;82.67;95804.81;4935464;29;20217;-83
2022/12/02 00:21:42;;;;;;;23.43;16.90;;;;;;;5.68;82.46;95800.38;4935447;29;20208;-81
2022/12/02 00:24:09;;;;;;;25.93;17.17;;;;;;;5.71;82.03;95800.09;4935108;29;20198;-81
2022/12/02 00:26:35;;;;;;;22.97;16.57;;;;;;;5.73;82.12;95802.53;4934066;29;20245;-81
2022/12/02 00:29:03;;;;;;;25.30;16.87;;;;;;;5.73;81.92;95798.22;4935162;29;20201;-82
2022/12/02 00:31:30;;;;;;;21.80;15.90;;;;;;;5.75;81.87;95801.44;4935043;29;20205;-81
2022/12/02 00:33:57;;;;;;;24.17;16.93;;;;;;;5.75;82.25;95798.09;4934662;29;20208;-81
2022/12/02 00:36:23;;;;;;;26.13;17.33;;;;;;;5.72;82.48;95796.59;4935157;29;20221;-81
2022/12/02 00:38:49;;;;;;;23.13;16.73;;;;;;;5.72;82.73;95796.59;4933883;29;20194;-83
2022/12/02 00:41:16;;;;;;;23.93;16.67;;;;;;;5.73;82.50;95792.31;4936185;29;20212;-81
2022/12/02 00:46:34;;;;;;;24.53;17.60;;;;;;;5.74;82.95;95787.06;4935267;29;20308;-81
2022/12/02 00:49:04;;;;;;;23.80;17.37;;;;;;;5.70;83.11;95782.38;4935464;29;20251;-81
2022/12/02 00:51:31;;;;;;;25.07;17.97;;;;;;;5.68;83.21;95782.50;4934804;29;20207;-82
2022/12/02 00:53:57;;;;;;;24.03;17.00;;;;;;;5.68;83.74;95782.50;4935370;29;20593;-83
2022/12/02 00:56:26;;;;;;;23.17;17.00;;;;;;;5.71;83.56;95781.41;4935671;29;20616;-81
2022/12/02 00:58:53;;;;;;;26.80;18.30;;;;;;;5.73;83.40;95785.44;4934915;29;20213;-82
2022/12/02 01:01:19;;;;;;;24.93;17.93;;;;;;;5.75;83.39;95786.13;4935341;29;20202;-84
2022/12/02 01:03:47;;;;;;;25.20;18.07;;;;;;;5.78;82.86;95780.69;4935667;29;20197;-82
2022/12/02 01:06:14;;;;;;;28.67;18.73;;;;;;;5.78;83.42;95793.47;4935032;29;20232;-82
2022/12/02 01:08:41;;;;;;;24.37;17.23;;;;;;;5.77;83.41;95788.53;4934495;29;20208;-82
2022/12/02 01:11:08;;;;;;;27.00;18.37;;;;;;;5.75;83.61;95786.13;4935104;29;20628;-81
2022/12/02 01:13:35;;;;;;;27.60;18.30;;;;;;;5.77;83.35;95791.84;4933959;29;20201;-81
2022/12/02 01:16:01;;;;;;;27.00;19.17;;;;;;;5.74;83.78;95783.69;4934537;29;20214;-82
2022/12/02 01:18:28;;;;;;;25.23;18.00;;;;;;;5.74;83.65;95786.25;4933857;29;20205;-81
2022/12/02 01:20:56;;;;;;;27.07;19.10;;;;;;;5.68;83.96;95779.94;4933664;29;20209;-82
2022/12/02 01:23:22;;;;;;;27.93;19.10;;;;;;;5.61;84.60;95780.63;4934093;29;20692;-82
2022/12/02 01:25:49;;;;;;;26.20;18.87;;;;;;;5.60;84.99;95786.69;4936096;29;20233;-80
2022/12/02 01:28:16;;;;;;;26.87;19.07;;;;;;;5.61;84.98;95775.53;4933699;29;20205;-81
2022/12/02 01:30:42;;;;;;;28.23;18.87;;;;;;;5.59;85.34;95773.13;4934492;29;20576;-81
2022/12/02 01:33:09;;;;;;;31.33;19.80;;;;;;;5.62;85.28;95772.03;4934211;29;20197;-81
2022/12/02 01:35:36;;;;;;;30.37;18.63;;;;;;;5.55;85.75;95774.38;4933821;29;20240;-81
2022/12/02 01:38:03;;;;;;;28.80;18.63;;;;;;;5.54;85.79;95767.66;4934093;29;20194;-82
2022/12/02 01:40:31;;;;;;;29.40;19.07;;;;;;;5.56;85.50;95765.75;4935158;29;20198;-82
2022/12/02 01:42:57;;;;;;;30.90;19.37;;;;;;;5.58;85.28;95758.75;4934837;29;20202;-82
2022/12/02 01:45:24;;;;;;;31.50;19.73;;;;;;;5.46;86.13;95770.09;4934717;29;20263;-82
2022/12/02 01:47:50;;;;;;;28.23;19.57;;;;;;;5.37;86.96;95764.09;4933842;29;20631;-82
2022/12/02 01:50:18;;;;;;;33.37;19.50;;;;;;;5.37;87.43;95766.66;4933661;29;20193;-82
2022/12/02 01:52:46;;;;;;;27.63;19.63;;;;;;;5.42;87.18;95761.91;4933493;29;20193;-82
2022/12/02 01:55:19;;;;;;;31.60;19.90;;;;;;;5.34;87.63;95763.56;4932886;29;20229;-82
2022/12/02 01:57:45;;;;;;;32.10;21.00;;;;;;;5.35;86.83;95768.53;4932318;29;20209;-82
2022/12/02 02:00:13;;;;;;;29.17;19.13;;;;;;;5.36;87.05;95767.59;4933023;29;20190;-81
2022/12/02 02:02:41;;;;;;;29.63;19.73;;;;;;;5.39;86.93;95761.38;4933662;29;20197;-81
2022/12/02 02:05:11;;;;;;;27.20;19.60;;;;;;;5.35;86.93;95765.16;4932926;29;20236;-81
2022/12/02 02:07:39;;;;;;;29.00;19.87;;;;;;;5.29;87.11;95765.72;4923975;29;20212;-82
2022/12/02 02:10:07;;;;;;;28.97;19.67;;;;;;;5.34;86.85;95761.81;4933194;29;20701;-81
2022/12/02 02:12:35;;;;;;;28.53;19.40;;;;;;;5.36;86.69;95757.38;4932313;29;20686;-80
2022/12/02 02:15:04;;;;;;;29.47;20.00;;;;;;;5.39;86.37;95758.81;4933526;29;20222;-82
2022/12/02 02:17:31;;;;;;;30.93;20.97;;;;;;;5.47;85.84;95749.53;4932449;29;20296;-81
2022/12/02 02:19:57;;;;;;;29.70;20.07;;;;;;;5.41;85.82;95749.28;4932437;29;20205;-82
2022/12/02 02:22:29;;;;;;;28.90;19.03;;;;;;;5.41;86.22;95751.81;4932986;29;20224;-81
2022/12/02 02:24:57;;;;;;;30.30;20.63;;;;;;;5.41;86.07;95739.88;4932983;29;20668;-81
2022/12/02 02:27:24;;;;;;;29.37;20.43;;;;;;;5.44;85.48;95749.81;4932561;29;20202;-82
2022/12/02 02:29:50;;;;;;;28.97;19.57;;;;;;;5.40;85.45;95748.47;4932485;29;20761;-82
2022/12/02 02:32:17;;;;;;;28.03;19.60;;;;;;;5.40;85.99;95745.13;4933192;29;20209;-82
2022/12/02 02:34:43;;;;;;;30.23;19.87;;;;;;;5.38;86.15;95745.28;4932738;29;20209;-81
2022/12/02 02:37:10;;;;;;;30.53;20.47;;;;;;;5.39;86.13;95740.94;4933012;29;20205;-84
2022/12/02 02:39:37;;;;;;;32.77;19.83;;;;;;;5.43;85.96;95743.09;4932858;29;20201;-81
2022/12/02 02:42:05;;;;;;;28.93;20.03;;;;;;;5.47;85.98;95746.97;4933358;29;20836;-82
2022/12/02 02:44:31;;;;;;;29.83;20.07;;;;;;;5.51;85.44;95744.94;4932907;29;20198;-82
2022/12/02 02:46:58;;;;;;;29.27;20.00;;;;;;;5.54;85.19;95742.13;4933003;29;20226;-80
2022/12/02 02:49:25;;;;;;;33.10;20.97;;;;;;;5.58;84.74;95740.09;4932007;29;20206;-81
2022/12/02 02:51:51;;;;;;;30.23;19.87;;;;;;;5.59;84.91;95739.13;4933114;29;20197;-82
2022/12/02 02:54:18;;;;;;;27.47;19.27;;;;;;;5.63;84.64;95738.69;4932468;29;20209;-81
2022/12/02 02:56:44;;;;;;;31.73;20.57;;;;;;;5.66;84.46;95730.75;4932032;29;20210;-81
2022/12/02 02:59:15;;;;;;;30.83;20.83;;;;;;;5.65;84.09;95734.25;4932374;29;20216;-81
2022/12/02 03:01:43;;;;;;;29.67;20.00;;;;;;;5.55;84.49;95736.06;4931955;29;20208;-81
2022/12/02 03:04:13;;;;;;;28.97;19.93;;;;;;;5.46;84.85;95734.34;4931953;29;20673;-83
2022/12/02 03:06:41;;;;;;;30.37;20.70;;;;;;;5.44;85.30;95731.13;4932141;29;20701;-82
2022/12/02 03:09:09;;;;;;;33.13;20.57;;;;;;;5.25;86.32;95729.47;4931603;29;20213;-82
2022/12/02 03:11:38;;;;;;;32.00;20.67;;;;;;;5.27;86.66;95722.47;4930883;29;20198;-82
2022/12/02 03:14:05;;;;;;;31.77;20.73;;;;;;;5.24;87.79;95725.28;4932076;29;20228;-80
2022/12/02 03:16:33;;;;;;;31.60;20.93;;;;;;;5.31;87.02;95723.81;4931774;29;20217;-81
2022/12/02 03:19:00;;;;;;;31.37;20.87;;;;;;;5.41;86.61;95723.75;4931810;29;20316;-82
2022/12/02 03:21:27;;;;;;;30.07;20.27;;;;;;;5.48;86.07;95722.25;4931960;29;20204;-82
2022/12/02 03:23:58;;;;;;;29.80;20.23;;;;;;;5.50;85.82;95720.34;4931609;29;20194;-82
2022/12/02 03:26:24;;;;;;;30.37;20.87;;;;;;;5.54;85.70;95724.25;4932079;29;20229;-82
2022/12/02 03:28:52;;;;;;;32.37;21.13;;;;;;;5.54;85.06;95717.38;4931646;29;20209;-82
2022/12/02 03:31:19;;;;;;;30.73;20.73;;;;;;;5.57;85.30;95718.06;4931799;29;20197;-82
2022/12/02 03:33:47;;;;;;;29.40;20.37;;;;;;;5.57;85.18;95716.31;4931481;29;20232;-80
2022/12/02 03:36:14;;;;;;;32.47;20.33;;;;;;;5.43;85.90;95725.22;4932200;29;20213;-81
2022/12/02 03:38:41;;;;;;;30.27;20.60;;;;;;;5.50;85.89;95710.13;4931119;29;20816;-80
2022/12/02 03:41:09;;;;;;;34.13;20.63;;;;;;;5.40;86.25;95711.91;4931934;29;20197;-81
2022/12/02 03:43:36;;;;;;;30.23;21.33;;;;;;;5.39;86.52;95705.22;4932357;29;20197;-82
2022/12/02 03:46:03;;;;;;;31.33;19.73;;;;;;;5.35;86.86;95711.56;4931510;29;20231;-82
2022/12/02 03:48:30;;;;;;;29.67;20.10;;;;;;;5.44;86.57;95718.34;4931233;29;20197;-82
2022/12/02 03:50:58;;;;;;;30.13;19.97;;;;;;;5.46;86.20;95717.28;4931954;29;20205;-82
2022/12/02 03:53:27;;;;;;;28.97;19.50;;;;;;;5.38;86.54;95712.09;4931980;29;20201;-80
2022/12/02 03:55:54;;;;;;;31.60;20.43;;;;;;;5.43;85.96;95709.91;4931199;29;20308;-82
2022/12/02 03:58:33;;;;;;;29.83;20.80;;;;;;;5.50;85.66;95707.59;4931462;29;20210;-82
2022/12/02 04:00:59;;;;;;;32.00;20.97;;;;;;;5.45;85.94;95707.19;4931171;29;20218;-81
2022/12/02 04:03:25;;;;;;;32.30;20.73;;;;;;;5.46;85.71;95706.25;4931798;29;20201;-81
2022/12/02 04:05:52;;;;;;;29.93;20.77;;;;;;;5.45;86.13;95695.25;4931343;29;20229;-82
2022/12/02 04:08:20;;;;;;;30.70;20.80;;;;;;;5.33;85.95;95704.03;4932113;29;20265;-80
2022/12/02 04:10:46;;;;;;;30.17;21.23;;;;;;;5.31;86.86;95705.13;4932104;29;20201;-81
2022/12/02 04:13:13;;;;;;;32.03;21.07;;;;;;;5.28;86.47;95696.00;4933513;29;20206;-81
2022/12/02 04:15:39;;;;;;;30.60;20.37;;;;;;;5.27;86.72;95696.94;4935124;29;20216;-82
2022/12/02 04:18:06;;;;;;;28.43;19.70;;;;;;;5.31;86.47;95694.91;4935213;29;20201;-81
2022/12/02 04:20:32;;;;;;;31.17;21.33;;;;;;;5.26;86.14;95692.78;4935457;29;20197;-82
2022/12/02 04:22:59;;;;;;;31.40;21.17;;;;;;;5.29;85.80;95689.16;4935368;29;20231;-80
2022/12/02 04:25:26;;;;;;;31.70;20.93;;;;;;;5.25;85.97;95687.81;4934619;29;20250;-82
2022/12/02 04:27:53;;;;;;;33.47;20.87;;;;;;;5.28;86.28;95688.34;4934318;29;20201;-82
2022/12/02 04:30:19;;;;;;;30.73;20.23;;;;;;;5.31;86.11;95687.25;4934946;29;20197;-79
2022/12/02 04:32:46;;;;;;;29.60;20.23;;;;;;;5.38;85.59;95686.56;4935451;29;20225;-80
2022/12/02 04:35:12;;;;;;;31.47;20.70;;;;;;;5.44;85.69;95685.16;4934355;29;20229;-82
2022/12/02 04:37:39;;;;;;;27.37;18.97;;;;;;;5.47;85.22;95684.88;4934273;29;20197;-82
2022/12/02 04:40:06;;;;;;;30.47;19.63;;;;;;;5.50;85.58;95684.59;4934646;29;20208;-81
2022/12/02 04:42:34;;;;;;;30.60;20.20;;;;;;;5.49;85.26;95685.56;4934737;29;20221;-81
2022/12/02 04:45:01;;;;;;;28.87;20.63;;;;;;;5.50;85.44;95685.41;4934805;29;20216;-82
2022/12/02 04:47:27;;;;;;;30.10;19.73;;;;;;;5.50;85.20;95677.75;4933782;29;20592;-81
2022/12/02 04:49:54;;;;;;;30.50;20.20;;;;;;;5.39;85.85;95690.69;4933991;29;20232;-82
2022/12/02 04:52:20;;;;;;;31.83;19.50;;;;;;;5.39;85.47;95685.59;4934612;29;20202;-81
2022/12/02 04:54:47;;;;;;;29.23;20.03;;;;;;;5.34;85.80;95682.69;4934032;29;20213;-81
2022/12/02 04:57:13;;;;;;;29.87;20.03;;;;;;;5.36;86.08;95683.34;4934281;29;20209;-82
2022/12/02 04:59:41;;;;;;;29.57;19.57;;;;;;;5.28;86.51;95685.78;4933867;29;20228;-81
2022/12/02 05:02:08;;;;;;;30.23;19.63;;;;;;;5.21;86.85;95690.63;4934192;29;20198;-82
2022/12/02 05:04:34;;;;;;;31.00;20.63;;;;;;;5.27;86.52;95681.63;4934130;29;20197;-81
2022/12/02 05:07:00;;;;;;;29.30;19.40;;;;;;;5.27;86.68;95681.63;4934188;29;20689;-80
2022/12/02 05:09:27;;;;;;;31.30;20.30;;;;;;;5.31;86.18;95687.25;4933721;29;20232;-81
2022/12/02 05:11:53;;;;;;;30.30;19.70;;;;;;;5.25;86.58;95678.41;4933052;29;20674;-81
2022/12/02 05:14:20;;;;;;;30.70;20.10;;;;;;;5.26;86.74;95681.75;4934203;29;20198;-81
2022/12/02 05:16:48;;;;;;;34.33;20.40;;;;;;;5.33;86.31;95677.72;4933765;29;20220;-82
2022/12/02 05:19:14;;;;;;;31.47;20.23;;;;;;;5.39;86.20;95672.00;4932587;29;20201;-81
2022/12/02 05:21:41;;;;;;;29.67;20.70;;;;;;;5.34;86.60;95675.03;4933319;29;20208;-81
2022/12/02 05:24:07;;;;;;;33.00;21.20;;;;;;;5.29;86.55;95666.97;4933205;29;20665;-80
2022/12/02 05:26:34;;;;;;;30.07;19.00;;;;;;;5.12;87.73;95668.53;4934003;29;20222;-81
2022/12/02 05:29:00;;;;;;;32.00;19.53;;;;;;;5.16;88.13;95677.53;4928403;29;20218;-81
2022/12/02 05:31:27;;;;;;;32.07;21.27;;;;;;;5.26;87.51;95674.09;4928539;29;20213;-81
2022/12/02 05:33:55;;;;;;;32.53;20.83;;;;;;;5.32;87.18;95666.69;4929819;29;20637;-81
2022/12/02 05:36:21;;;;;;;32.50;20.90;;;;;;;5.26;87.30;95674.91;4931798;29;20220;-82
2022/12/02 05:38:47;;;;;;;32.20;20.00;;;;;;;5.23;87.62;95675.19;4932735;29;20198;-80
2022/12/02 05:41:14;;;;;;;29.30;19.20;;;;;;;5.29;87.40;95673.81;4928015;29;20217;-82
2022/12/02 05:43:42;;;;;;;30.67;21.03;;;;;;;5.27;87.31;95671.41;4934070;29;20202;-82
2022/12/02 05:46:13;;;;;;;30.20;20.30;;;;;;;5.32;87.09;95671.81;4933786;29;20232;-81
2022/12/02 05:48:40;;;;;;;29.50;20.00;;;;;;;5.39;86.65;95672.00;4939157;29;20264;-82
2022/12/02 05:51:11;;;;;;;29.53;19.23;;;;;;;5.43;85.92;95675.91;4934422;29;20209;-81
2022/12/02 05:53:39;;;;;;;35.37;20.70;;;;;;;5.47;85.62;95674.69;4935305;29;20186;-82
2022/12/02 05:56:10;;;;;;;30.90;20.30;;;;;;;5.46;85.87;95673.88;4933611;29;20226;-80
2022/12/02 05:58:36;;;;;;;29.70;19.93;;;;;;;5.48;85.27;95679.63;4934087;29;20716;-82
2022/12/02 06:01:14;;;;;;;32.13;21.40;;;;;;;5.48;85.15;95671.97;4933210;29;20209;-80
2022/12/02 06:03:40;;;;;;;32.53;21.50;;;;;;;5.48;85.48;95674.53;4933226;29;20190;-83
2022/12/02 06:06:10;;;;;;;33.43;20.37;;;;;;;5.45;85.66;95674.00;4933258;29;20225;-81
2022/12/02 06:08:37;;;;;;;31.50;20.97;;;;;;;5.41;85.96;95670.94;4933027;29;20201;-81
2022/12/02 06:11:22;;;;;;;31.10;20.90;;;;;;;5.45;85.99;95674.81;4933503;29;20197;-81
2022/12/02 06:13:48;;;;;;;31.90;19.53;;;;;;;5.49;85.72;95677.88;4946544;29;20189;-82
2022/12/02 06:16:23;;;;;;;31.57;19.80;;;;;;;5.48;85.21;95674.53;4933187;29;20221;-81
2022/12/02 06:18:50;;;;;;;29.80;20.00;;;;;;;5.43;85.49;95669.03;4933447;29;20208;-82
2022/12/02 06:21:20;;;;;;;30.67;19.67;;;;;;;5.45;85.49;95671.47;4932953;29;20202;-81
2022/12/02 06:23:48;;;;;;;32.63;20.80;;;;;;;5.46;85.60;95668.75;4933656;29;20765;-82
2022/12/02 06:26:17;;;;;;;31.60;20.53;;;;;;;5.48;85.10;95679.63;4933628;29;20233;-81
2022/12/02 06:28:45;;;;;;;34.87;22.03;;;;;;;5.41;95.47;95672.69;4933465;29;20201;-82
2022/12/02 06:31:16;;;;;;;33.97;21.53;;;;;;;5.36;92.59;95677.44;4933753;29;20209;-82
2022/12/02 06:33:45;;;;;;;37.70;22.30;;;;;;;5.39;88.67;95677.94;4934143;29;20202;-82
2022/12/02 06:36:15;;;;;;;51.90;33.83;;;;;;;5.43;87.57;95674.16;4933174;29;20229;-80
2022/12/02 06:38:48;;;;;;;38.20;23.77;;;;;;;5.41;87.04;95673.47;4933829;29;20205;-82
2022/12/02 06:41:19;;;;;;;36.03;23.60;;;;;;;5.47;86.64;95682.34;4933482;29;20264;-82
2022/12/02 06:45:03;;;;;;;34.37;21.27;;;;;;;5.48;86.33;95677.09;4934142;29;20214;-81
2022/12/02 06:46:33;;;;;;;33.13;20.83;;;;;;;5.48;86.17;95674.53;4926163;29;20233;-79
2022/12/02 06:49:00;;;;;;;32.07;21.43;;;;;;;5.48;85.86;95674.53;4930490;29;20430;-83
2022/12/02 06:51:26;;;;;;;37.87;21.87;;;;;;;5.37;86.73;95682.41;4930434;29;20204;-81
2022/12/02 06:53:54;;;;;;;37.27;21.80;;;;;;;5.36;86.96;95674.88;4932943;29;20215;-80
2022/12/02 06:56:24;;;;;;;27.67;18.27;;;;;;;5.85;100.00;95676.19;4932771;29;20220;-81
2022/12/02 06:58:57;;;;;;;31.93;20.37;;;;;;;5.99;90.76;95674.91;4932506;29;20202;-81
2022/12/02 07:01:33;;;;;;;29.23;19.50;;;;;;;5.85;86.10;95681.28;4931393;29;20201;-81
2022/12/02 07:04:16;;;;;;;32.23;21.27;;;;;;;5.75;86.71;95678.81;4924666;29;20213;-81
2022/12/02 07:06:45;;;;;;;31.87;20.73;;;;;;;5.69;86.64;95686.25;4923256;29;20229;-81
2022/12/02 07:09:16;;;;;;;32.97;21.80;;;;;;;5.58;87.09;95678.81;4932420;29;20201;-81
2022/12/02 07:11:51;;;;;;;42.67;27.87;;;;;;;5.49;87.61;95677.88;4929941;29;20194;-82
2022/12/02 07:14:27;;;;;;;33.23;21.60;;;;;;;5.40;91.17;95676.19;4931653;29;20260;-80
2022/12/02 07:16:55;;;;;;;35.37;21.30;;;;;;;5.42;89.08;95679.41;4932028;29;20225;-80
2022/12/02 07:19:25;;;;;;;34.77;21.33;;;;;;;5.45;88.71;95677.38;4922949;29;20677;-81
2022/12/02 07:21:51;;;;;;;32.57;21.33;;;;;;;5.45;88.67;95684.22;4932197;29;20209;-81
2022/12/02 07:24:21;;;;;;;33.43;21.00;;;;;;;5.47;88.47;95682.34;4932034;29;20208;-79
2022/12/02 07:26:48;;;;;;;31.00;20.00;;;;;;;5.24;89.25;95684.47;4931338;29;20245;-82
2022/12/02 07:29:25;;;;;;;31.90;21.63;;;;;;;5.14;90.55;95676.84;4933007;29;20202;-80
2022/12/02 07:31:52;;;;;;;32.63;21.07;;;;;;;5.15;90.81;95681.00;4932126;29;20236;-80
2022/12/02 07:34:18;;;;;;;32.67;21.30;;;;;;;5.18;89.79;95685.03;4933383;29;20201;-81
2022/12/02 07:36:45;;;;;;;33.00;21.23;;;;;;;5.32;89.20;95673.56;4932569;29;20217;-81
2022/12/02 07:39:11;;;;;;;31.10;20.23;;;;;;;5.40;88.39;95679.53;4932175;29;20205;-82
2022/12/02 07:41:39;;;;;;;29.33;20.23;;;;;;;5.48;87.80;95677.09;4931683;29;20220;-82
2022/12/02 07:44:06;;;;;;;30.83;20.47;;;;;;;5.54;87.24;95683.38;4933093;29;20235;-81
2022/12/02 07:46:32;;;;;;;30.90;20.30;;;;;;;5.55;86.73;95679.88;4932426;29;20225;-81
2022/12/02 07:48:59;;;;;;;31.90;20.60;;;;;;;5.59;86.21;95678.63;4935861;29;20678;-80
2022/12/02 07:51:26;;;;;;;30.77;20.60;;;;;;;5.46;87.06;95675.63;4935376;29;20205;-82
2022/12/02 07:53:52;;;;;;;27.07;17.23;;;;;;;5.63;100.00;95679.94;4936607;29;20427;-83
2022/12/02 07:56:18;;;;;;;33.83;20.90;;;;;;;6.11;100.00;95678.88;4937174;29;20227;-81
2022/12/02 07:58:46;;;;;;;44.17;30.20;;;;;;;6.52;100.00;95680.81;4936703;29;20573;-80
2022/12/02 08:01:13;;;;;;;35.17;23.70;;;;;;;6.44;87.41;95675.59;4935925;29;20589;-81
2022/12/02 08:03:39;;;;;;;33.70;22.67;;;;;;;6.34;85.81;95676.66;4935040;29;20205;-81
2022/12/02 08:06:06;;;;;;;31.33;20.63;;;;;;;6.21;84.47;95671.91;4935873;29;20217;-81
2022/12/02 08:08:33;;;;;;;33.70;21.33;;;;;;;6.07;84.97;95677.53;4934601;29;20218;-82
2022/12/02 08:10:59;;;;;;;29.53;20.60;;;;;;;5.97;85.12;95672.50;4935184;29;20197;-81
2022/12/02 08:13:26;;;;;;;32.50;21.47;;;;;;;5.85;85.98;95676.19;4937318;29;20209;-82
2022/12/02 08:15:53;;;;;;;32.33;21.17;;;;;;;5.71;85.80;95674.13;4935482;29;20257;-81
2022/12/02 08:18:20;;;;;;;32.77;21.77;;;;;;;5.59;86.22;95678.63;4936463;29;20197;-82
2022/12/02 08:20:46;;;;;;;32.43;21.60;;;;;;;5.55;85.89;95678.13;4936040;29;20201;-80
2022/12/02 08:23:13;;;;;;;34.20;21.17;;;;;;;5.57;86.55;95674.63;4936739;29;20212;-82
2022/12/02 08:25:39;;;;;;;34.87;22.17;;;;;;;5.60;86.36;95682.78;4935960;29;20224;-82
2022/12/02 08:28:05;;;;;;;32.87;20.77;;;;;;;5.49;86.74;95676.13;4935278;29;20240;-81
2022/12/02 08:30:32;;;;;;;33.20;21.90;;;;;;;5.53;86.84;95672.38;4936385;29;20202;-83
2022/12/02 08:33:00;;;;;;;32.13;20.77;;;;;;;5.52;87.17;95675.06;4936041;29;20205;-81
2022/12/02 08:35:26;;;;;;;34.47;20.90;;;;;;;5.57;86.56;95677.19;4936161;29;20217;-82
2022/12/02 08:37:53;;;;;;;33.87;21.57;;;;;;;5.59;86.22;95673.53;4936076;29;20198;-80
2022/12/02 08:40:19;;;;;;;50.97;34.07;;;;;;;5.63;85.88;95676.59;4932656;29;20214;-81
2022/12/02 08:42:46;;;;;;;55.80;35.10;;;;;;;5.66;86.28;95682.22;4935119;29;20212;-81
2022/12/02 08:45:12;;;;;;;37.33;25.30;;;;;;;5.68;85.75;95674.41;4934219;29;20721;-81
2022/12/02 08:47:39;;;;;;;35.97;23.13;;;;;;;5.69;85.00;95679.38;4935052;29;20224;-80
2022/12/02 08:50:07;;;;;;;31.67;21.27;;;;;;;5.70;84.47;95675.88;4940063;28;20212;-81
2022/12/02 08:52:34;;;;;;;33.97;22.20;;;;;;;5.71;84.77;95681.81;4935612;29;20198;-81
2022/12/02 08:55:00;;;;;;;35.30;23.00;;;;;;;5.71;84.73;95669.84;4935839;29;20221;-80
2022/12/02 08:57:27;;;;;;;30.63;20.63;;;;;;;5.67;85.10;95676.16;4935268;29;20581;-80
2022/12/02 08:59:53;;;;;;;32.93;20.97;;;;;;;5.70;85.27;95667.41;4934438;29;20209;-83
2022/12/02 09:02:20;;;;;;;32.63;20.33;;;;;;;5.65;85.55;95670.41;4935196;29;20482;-82
2022/12/02 09:04:46;;;;;;;32.07;19.67;;;;;;;5.64;85.06;95668.78;4935439;29;20233;-81
2022/12/02 09:07:14;;;;;;;31.87;21.13;;;;;;;5.62;85.58;95662.22;4935167;29;20824;-81
2022/12/02 09:09:40;;;;;;;31.43;20.57;;;;;;;5.68;85.43;95666.75;4935705;29;20577;-80
2022/12/02 09:12:07;;;;;;;35.20;20.70;;;;;;;5.66;85.56;95668.66;4934132;29;20201;-81
2022/12/02 09:14:34;;;;;;;31.77;21.57;;;;;;;5.66;85.57;95666.09;4934859;29;20677;-81
2022/12/02 09:17:00;;;;;;;33.43;21.57;;;;;;;5.70;85.20;95660.56;4935340;29;20744;-81
2022/12/02 09:19:26;;;;;;;31.93;21.30;;;;;;;5.73;85.30;95660.28;4934458;29;20239;-82
2022/12/02 09:21:53;;;;;;;32.87;20.33;;;;;;;5.76;85.57;95661.75;4933673;29;20297;-81
2022/12/02 09:24:21;;;;;;;31.10;20.03;;;;;;;5.61;85.50;95663.97;4934626;29;20197;-82
2022/12/02 09:26:48;;;;;;;33.63;21.53;;;;;;;5.66;85.48;95661.78;4933550;29;20741;-80
2022/12/02 09:29:14;;;;;;;32.80;21.20;;;;;;;5.62;85.93;95662.22;4933654;29;20205;-82
2022/12/02 09:31:41;;;;;;;33.83;21.47;;;;;;;5.61;85.79;95663.97;4933797;29;20202;-82
2022/12/02 09:34:07;;;;;;;31.57;20.80;;;;;;;5.63;86.56;95659.53;4934479;29;20198;-82
2022/12/02 09:36:34;;;;;;;32.00;20.93;;;;;;;5.72;85.49;95661.22;4933659;29;20236;-81
2022/12/02 09:39:00;;;;;;;32.87;21.07;;;;;;;5.80;85.51;95647.72;4933075;29;20193;-81
2022/12/02 09:41:28;;;;;;;29.40;20.23;;;;;;;5.87;85.35;95652.09;4933998;29;20205;-82
2022/12/02 09:43:55;;;;;;;29.87;20.33;;;;;;;5.95;84.77;95653.16;4934104;29;20204;-82
2022/12/02 09:46:22;;;;;;;32.40;19.80;;;;;;;5.96;84.54;95647.91;4933901;29;20213;-82
2022/12/02 09:48:48;;;;;;;33.23;21.60;;;;;;;6.00;84.57;95654.31;4937848;28;20212;-80
2022/12/02 09:51:15;;;;;;;31.27;20.30;;;;;;;6.01;84.05;95642.34;4933251;29;20205;-82
2022/12/02 09:53:42;;;;;;;30.27;19.50;;;;;;;6.03;83.92;95637.88;4934047;29;20204;-81
2022/12/02 09:56:14;;;;;;;40.50;26.93;;;;;;;5.99;84.26;95644.22;4933610;29;20232;-82
2022/12/02 09:58:43;;;;;;;40.90;27.20;;;;;;;6.01;84.52;95647.44;4934278;29;20212;-82
2022/12/02 10:01:10;;;;;;;39.27;25.27;;;;;;;6.06;84.47;95643.50;4933568;29;20197;-82
2022/12/02 10:03:37;;;;;;;33.40;22.33;;;;;;;6.10;83.33;95636.34;4933709;29;20205;-80
2022/12/02 10:06:07;;;;;;;30.93;20.17;;;;;;;6.14;82.88;95648.72;4933437;29;20226;-81
2022/12/02 10:08:34;;;;;;;29.17;19.80;;;;;;;6.10;83.08;95644.84;4932530;29;20225;-82
2022/12/02 10:11:00;;;;;;;28.63;18.97;;;;;;;5.96;82.26;95642.81;4932432;29;20213;-82
2022/12/02 10:13:27;;;;;;;27.47;17.97;;;;;;;5.95;82.90;95641.19;4932682;29;20205;-82
2022/12/02 10:15:55;;;;;;;27.90;18.30;;;;;;;5.96;83.10;95637.69;4933420;29;20229;-82
2022/12/02 10:18:27;;;;;;;27.33;18.23;;;;;;;6.00;82.91;95633.06;4933989;29;20197;-82
2022/12/02 10:20:53;;;;;;;27.47;17.83;;;;;;;6.01;82.50;95638.03;4933299;29;20212;-82
2022/12/02 10:23:22;;;;;;;25.87;17.63;;;;;;;6.03;82.30;95640.44;4932615;29;20209;-82
2022/12/02 10:25:51;;;;;;;24.60;16.33;;;;;;;6.04;81.73;95632.63;4932608;29;20217;-82
2022/12/02 10:28:25;;;;;;;20.87;15.30;;;;;;;6.05;81.86;95636.00;4930682;29;20221;-81
2022/12/02 10:30:56;;;;;;;23.50;16.43;;;;;;;6.08;81.63;95622.91;4932480;29;20670;-82
2022/12/02 10:33:27;;;;;;;24.93;16.77;;;;;;;6.12;81.88;95621.69;4932600;29;20205;-81
2022/12/02 10:35:58;;;;;;;27.93;17.03;;;;;;;6.15;81.77;95629.88;4931783;29;20225;-82
2022/12/02 10:38:37;;;;;;;23.13;17.37;;;;;;;6.14;81.86;95620.59;4932257;29;20204;-81
2022/12/02 10:41:21;;;;;;;26.67;18.07;;;;;;;6.12;81.04;95622.47;4931704;29;20214;-82
2022/12/02 10:44:03;;;;;;;55.77;38.53;;;;;;;5.92;81.89;95620.22;4927361;29;20201;-82
2022/12/02 10:46:31;;;;;;;31.80;21.10;;;;;;;5.86;82.38;95619.84;4932016;29;20222;-82
2022/12/02 10:49:16;;;;;;;30.50;20.07;;;;;;;5.93;82.91;95616.72;4932634;29;20597;-82
2022/12/02 10:51:42;;;;;;;26.20;18.80;;;;;;;6.01;82.68;95614.22;4932055;29;20203;-81
2022/12/02 10:54:20;;;;;;;26.00;17.97;;;;;;;6.08;82.62;95610.94;4932338;29;20217;-81
2022/12/02 10:56:47;;;;;;;25.03;17.47;;;;;;;6.15;82.78;95611.97;4932318;29;20218;-82
2022/12/02 10:59:15;;;;;;;24.67;16.77;;;;;;;6.16;81.71;95610.19;4931532;29;20205;-82
2022/12/02 11:01:44;;;;;;;24.40;17.27;;;;;;;6.21;81.53;95605.44;4931971;29;20216;-81
2022/12/02 11:04:12;;;;;;;27.37;17.30;;;;;;;6.26;81.46;95607.56;4929664;29;20213;-82
2022/12/02 11:06:39;;;;;;;24.13;17.33;;;;;;;6.28;81.30;95603.09;4932803;29;20244;-80
2022/12/02 11:09:06;;;;;;;22.57;16.63;;;;;;;6.30;80.74;95602.00;4932757;29;20697;-81
2022/12/02 11:11:38;;;;;;;39.17;27.23;;;;;;;6.05;77.31;95598.47;4931606;29;20294;-81
2022/12/02 11:14:06;;;;;;;44.37;31.63;;;;;;;6.05;79.30;95595.09;4932231;29;20201;-82
2022/12/02 11:17:06;;;;;;;30.43;21.53;;;;;;;6.01;79.03;95594.59;4933258;29;20221;-81
2022/12/02 11:19:44;;;;;;;24.17;16.23;;;;;;;5.91;79.42;95593.06;4924780;29;20206;-81
2022/12/02 11:22:48;;;;;;;21.77;16.50;;;;;;;5.91;80.59;95590.53;4930739;29;20201;-81
2022/12/02 11:25:52;;;;;;;22.30;15.47;;;;;;;5.99;80.08;95593.94;4931010;29;20205;-81
2022/12/02 11:28:37;;;;;;;20.43;14.40;;;;;;;6.03;79.57;95592.69;4931544;29;20685;-81
2022/12/02 11:31:23;;;;;;;20.93;14.90;;;;;;;6.03;78.64;95592.69;4931451;29;20210;-82
2022/12/02 11:34:05;;;;;;;21.20;15.33;;;;;;;6.05;78.34;95588.25;4931710;29;20221;-81